createdAt,value
2018-12-21T00:00:48.337Z,95904.41
2018-12-21T00:01:50.790Z,95903.41
2018-12-21T00:02:53.228Z,95896.86
2018-12-21T00:03:55.763Z,95900.79
2018-12-21T00:04:58.330Z,95901.88
2018-12-21T00:06:00.840Z,95902.59
2018-12-21T00:07:03.296Z,95903.00
2018-12-21T00:08:05.727Z,95902.59
2018-12-21T00:09:08.159Z,95901.55
2018-12-21T00:10:10.598Z,95903.27
2018-12-21T00:11:13.050Z,95900.57
2018-12-21T00:12:15.503Z,95898.98
2018-12-21T00:13:17.970Z,95901.24
2018-12-21T00:14:20.426Z,95899.03
2018-12-21T00:15:22.868Z,95900.42
2018-12-21T00:16:25.318Z,95896.14
2018-12-21T00:17:34.591Z,95898.88
2018-12-21T00:18:32.249Z,95891.56
2018-12-21T00:19:34.676Z,95898.88
2018-12-21T00:20:37.113Z,95899.64
2018-12-21T00:21:39.582Z,95897.42
2018-12-21T00:22:42.073Z,95897.20
2018-12-21T00:23:44.507Z,95892.92
2018-12-21T00:24:46.960Z,95897.11
2018-12-21T00:25:49.403Z,95889.83
2018-12-21T00:26:51.855Z,95893.19
2018-12-21T00:27:54.290Z,95889.88
2018-12-21T00:28:56.723Z,95883.34
2018-12-21T00:29:59.161Z,95890.02
2018-12-21T00:31:07.288Z,95889.33
2018-12-21T00:32:15.491Z,95889.33
2018-12-21T00:33:23.535Z,95891.59
2018-12-21T00:34:31.786Z,95887.30
2018-12-21T00:35:39.750Z,95892.28
2018-12-21T00:36:47.866Z,95888.86
2018-12-21T00:37:56.024Z,95889.21
2018-12-21T00:39:04.160Z,95893.28
2018-12-21T00:40:12.533Z,95888.59
2018-12-21T00:41:14.950Z,95883.93
2018-12-21T00:42:22.009Z,95889.57
2018-12-21T00:43:28.371Z,95887.86
2018-12-21T00:44:32.606Z,95892.19
2018-12-21T00:45:36.636Z,95896.71
2018-12-21T00:46:40.366Z,95888.95
2018-12-21T00:47:42.821Z,95881.47
2018-12-21T00:48:45.294Z,95882.92
2018-12-21T00:49:47.810Z,95883.66
2018-12-21T00:50:50.309Z,95879.26
2018-12-21T00:51:52.760Z,95882.09
2018-12-21T00:52:55.219Z,95881.33
2018-12-21T00:53:57.678Z,95876.28
2018-12-21T00:55:00.140Z,95880.69
2018-12-21T00:56:02.581Z,95879.78
2018-12-21T00:57:05.128Z,95876.52
2018-12-21T00:58:07.592Z,95883.84
2018-12-21T00:59:10.028Z,95868.72
2018-12-21T01:00:17.375Z,95871.73
2018-12-21T01:01:20.207Z,95868.72
2018-12-21T01:02:22.672Z,95864.09
2018-12-21T01:03:25.276Z,95869.70
2018-12-21T01:04:27.708Z,95868.72
2018-12-21T01:05:30.357Z,95867.08
2018-12-21T01:06:32.847Z,95871.55
2018-12-21T01:07:35.380Z,95870.03
2018-12-21T01:08:37.901Z,95869.59
2018-12-21T01:09:40.343Z,95868.07
2018-12-21T01:10:42.870Z,95865.19
2018-12-21T01:11:45.425Z,95876.23
2018-12-21T01:12:47.901Z,95866.45
2018-12-21T01:13:50.342Z,95865.69
2018-12-21T01:14:52.806Z,95873.36
2018-12-21T01:15:55.401Z,95871.33
2018-12-21T01:16:57.832Z,95872.38
2018-12-21T01:18:00.364Z,95868.89
2018-12-21T01:19:02.799Z,95873.77
2018-12-21T01:20:06.631Z,95875.27
2018-12-21T01:21:11.089Z,95871.91
2018-12-21T01:22:13.528Z,95875.48
2018-12-21T01:23:15.991Z,95883.05
2018-12-21T01:24:18.431Z,95882.07
2018-12-21T01:25:20.856Z,95888.21
2018-12-21T01:26:23.309Z,95884.42
2018-12-21T01:27:26.132Z,95890.78
2018-12-21T01:28:28.653Z,95882.14
2018-12-21T01:29:31.173Z,95885.55
2018-12-21T01:30:33.616Z,95883.78
2018-12-21T01:31:36.074Z,95883.95
2018-12-21T01:32:38.527Z,95882.98
2018-12-21T01:33:41.004Z,95885.09
2018-12-21T01:34:43.503Z,95884.55
2018-12-21T01:35:45.988Z,95879.81
2018-12-21T01:36:48.430Z,95880.76
2018-12-21T01:37:50.883Z,95882.88
2018-12-21T01:38:53.492Z,95884.05
2018-12-21T01:39:55.936Z,95883.59
2018-12-21T01:40:58.373Z,95878.22
2018-12-21T01:42:00.944Z,95876.77
2018-12-21T01:43:03.563Z,95877.31
2018-12-21T01:44:06.012Z,95883.38
2018-12-21T01:45:08.457Z,95880.62
2018-12-21T01:46:10.891Z,95877.86
2018-12-21T01:47:13.423Z,95881.38
2018-12-21T01:48:15.877Z,95886.80
2018-12-21T01:49:18.308Z,95884.95
2018-12-21T01:50:20.764Z,95886.66
2018-12-21T01:51:23.217Z,95891.40
2018-12-21T01:52:25.664Z,95885.87
2018-12-21T01:53:28.172Z,95880.92
2018-12-21T01:54:30.614Z,95885.06
2018-12-21T01:55:33.068Z,95882.34
2018-12-21T01:56:35.504Z,95878.11
2018-12-21T01:57:37.949Z,95879.53
2018-12-21T01:58:40.407Z,95881.18
2018-12-21T01:59:42.858Z,95886.23
2018-12-21T02:00:45.405Z,95863.89
2018-12-21T02:01:47.952Z,95870.41
2018-12-21T02:02:50.402Z,95868.80
2018-12-21T02:03:52.867Z,95866.88
2018-12-21T02:04:55.320Z,95865.97
2018-12-21T02:05:57.752Z,95874.45
2018-12-21T02:07:00.182Z,95868.08
2018-12-21T02:08:02.633Z,95871.56
2018-12-21T02:09:06.249Z,95865.96
2018-12-21T02:10:08.796Z,95874.84
2018-12-21T02:11:11.268Z,95871.97
2018-12-21T02:12:13.720Z,95868.08
2018-12-21T02:13:16.153Z,95864.36
2018-12-21T02:14:18.612Z,95862.58
2018-12-21T02:15:21.084Z,95858.66
2018-12-21T02:16:23.523Z,95862.25
2018-12-21T02:17:25.965Z,95861.13
2018-12-21T02:18:28.398Z,95860.59
2018-12-21T02:19:30.864Z,95856.88
2018-12-21T02:20:33.329Z,95860.00
2018-12-21T02:21:36.050Z,95862.84
2018-12-21T02:22:38.490Z,95851.81
2018-12-21T02:23:40.925Z,95854.72
2018-12-21T02:24:43.388Z,95858.11
2018-12-21T02:25:45.873Z,95850.25
2018-12-21T02:26:48.315Z,95855.37
2018-12-21T02:27:50.833Z,95848.64
2018-12-21T02:28:53.272Z,95849.05
2018-12-21T02:29:55.727Z,95844.54
2018-12-21T02:30:58.183Z,95846.83
2018-12-21T02:32:00.608Z,95845.55
2018-12-21T02:33:03.039Z,95847.22
2018-12-21T02:34:05.557Z,95840.86
2018-12-21T02:35:08.027Z,95847.27
2018-12-21T02:36:10.477Z,95844.28
2018-12-21T02:37:12.913Z,95841.66
2018-12-21T02:38:15.347Z,95836.63
2018-12-21T02:39:17.839Z,95844.86
2018-12-21T02:40:20.304Z,95845.77
2018-12-21T02:41:22.731Z,95839.77
2018-12-21T02:42:25.171Z,95837.69
2018-12-21T02:43:27.628Z,95841.47
2018-12-21T02:44:30.060Z,95844.70
2018-12-21T02:45:32.533Z,95840.56
2018-12-21T02:46:34.990Z,95839.80
2018-12-21T02:47:37.424Z,95845.05
2018-12-21T02:48:39.863Z,95842.48
2018-12-21T02:49:42.302Z,95837.94
2018-12-21T02:50:44.753Z,95845.80
2018-12-21T02:51:47.208Z,95846.20
2018-12-21T02:52:49.649Z,95831.83
2018-12-21T02:53:52.136Z,95844.75
2018-12-21T02:54:54.571Z,95835.03
2018-12-21T02:55:57.039Z,95844.13
2018-12-21T02:56:59.483Z,95841.58
2018-12-21T02:58:01.938Z,95839.11
2018-12-21T02:59:04.381Z,95836.09
2018-12-21T03:00:08.201Z,95834.96
2018-12-21T03:01:10.657Z,95845.05
2018-12-21T03:02:13.118Z,95843.19
2018-12-21T03:03:15.581Z,95843.58
2018-12-21T03:04:18.045Z,95846.75
2018-12-21T03:05:20.487Z,95842.13
2018-12-21T03:06:22.950Z,95844.53
2018-12-21T03:07:25.411Z,95833.23
2018-12-21T03:08:27.844Z,95836.12
2018-12-21T03:09:30.359Z,95827.72
2018-12-21T03:10:32.807Z,95831.50
2018-12-21T03:11:35.269Z,95826.95
2018-12-21T03:12:37.727Z,95831.61
2018-12-21T03:13:40.163Z,95823.53
2018-12-21T03:14:42.638Z,95831.61
2018-12-21T03:15:45.139Z,95821.67
2018-12-21T03:16:47.595Z,95824.05
2018-12-21T03:17:50.041Z,95826.12
2018-12-21T03:18:52.502Z,95823.28
2018-12-21T03:19:54.939Z,95819.20
2018-12-21T03:20:57.419Z,95814.77
2018-12-21T03:21:59.872Z,95815.82
2018-12-21T03:23:02.320Z,95811.95
2018-12-21T03:24:04.780Z,95813.27
2018-12-21T03:25:07.323Z,95818.24
2018-12-21T03:26:09.788Z,95818.97
2018-12-21T03:27:12.246Z,95821.41
2018-12-21T03:28:14.672Z,95817.78
2018-12-21T03:29:17.107Z,95811.44
2018-12-21T03:30:19.553Z,95821.59
2018-12-21T03:31:22.102Z,95825.06
2018-12-21T03:32:24.564Z,95811.99
2018-12-21T03:33:27.167Z,95818.30
2018-12-21T03:34:29.720Z,95811.53
2018-12-21T03:35:32.264Z,95814.77
2018-12-21T03:36:34.701Z,95810.22
2018-12-21T03:37:37.164Z,95817.20
2018-12-21T03:38:39.615Z,95806.78
2018-12-21T03:39:42.096Z,95809.88
2018-12-21T03:40:44.545Z,95811.34
2018-12-21T03:41:46.980Z,95807.81
2018-12-21T03:42:49.446Z,95813.05
2018-12-21T03:43:51.991Z,95818.08
2018-12-21T03:44:54.432Z,95815.45
2018-12-21T03:45:56.863Z,95811.38
2018-12-21T03:46:59.301Z,95811.45
2018-12-21T03:48:01.784Z,95801.92
2018-12-21T03:49:04.257Z,95799.00
2018-12-21T03:50:06.863Z,95794.70
2018-12-21T03:51:09.304Z,95795.63
2018-12-21T03:52:11.749Z,95795.77
2018-12-21T03:53:14.191Z,95797.84
2018-12-21T03:54:16.642Z,95791.88
2018-12-21T03:55:19.071Z,95794.83
2018-12-21T03:56:21.523Z,95789.77
2018-12-21T03:57:23.968Z,95784.20
2018-12-21T03:58:26.423Z,95791.69
2018-12-21T03:59:28.887Z,95788.38
2018-12-21T04:00:31.323Z,95782.58
2018-12-21T04:01:33.768Z,95786.15
2018-12-21T04:02:36.208Z,95783.17
2018-12-21T04:03:38.676Z,95775.50
2018-12-21T04:04:41.166Z,95776.66
2018-12-21T04:05:43.679Z,95777.69
2018-12-21T04:06:46.131Z,95772.73
2018-12-21T04:07:48.579Z,95770.57
2018-12-21T04:08:51.047Z,95766.41
2018-12-21T04:09:53.483Z,95768.89
2018-12-21T04:10:55.933Z,95769.95
2018-12-21T04:11:58.379Z,95764.20
2018-12-21T04:13:00.826Z,95765.25
2018-12-21T04:14:03.397Z,95779.60
2018-12-21T04:15:05.936Z,95771.84
2018-12-21T04:16:08.394Z,95773.30
2018-12-21T04:17:10.833Z,95768.06
2018-12-21T04:18:13.282Z,95766.49
2018-12-21T04:19:15.743Z,95763.64
2018-12-21T04:20:18.188Z,95774.47
2018-12-21T04:21:20.631Z,95767.42
2018-12-21T04:22:23.065Z,95760.47
2018-12-21T04:23:25.502Z,95765.05
2018-12-21T04:24:27.960Z,95761.05
2018-12-21T04:25:30.409Z,95761.91
2018-12-21T04:26:32.880Z,95765.34
2018-12-21T04:27:35.335Z,95769.72
2018-12-21T04:28:37.771Z,95756.14
2018-12-21T04:29:40.723Z,95761.23
2018-12-21T04:30:43.156Z,95758.61
2018-12-21T04:31:45.605Z,95759.30
2018-12-21T04:32:48.045Z,95760.80
2018-12-21T04:33:50.597Z,95758.92
2018-12-21T04:34:53.056Z,95755.54
2018-12-21T04:35:55.498Z,95758.02
2018-12-21T04:36:57.948Z,95758.59
2018-12-21T04:38:00.387Z,95758.51
2018-12-21T04:39:02.830Z,95754.72
2018-12-21T04:40:06.692Z,95757.24
2018-12-21T04:41:09.129Z,95754.95
2018-12-21T04:42:11.574Z,95750.98
2018-12-21T04:43:14.015Z,95750.27
2018-12-21T04:44:16.448Z,95745.34
2018-12-21T04:45:18.890Z,95744.23
2018-12-21T04:46:21.341Z,95746.47
2018-12-21T04:47:23.774Z,95745.49
2018-12-21T04:48:26.205Z,95741.79
2018-12-21T04:49:28.664Z,95746.03
2018-12-21T04:50:31.114Z,95741.75
2018-12-21T04:51:33.572Z,95745.48
2018-12-21T04:52:43.176Z,95739.00
2018-12-21T04:53:40.551Z,95742.19
2018-12-21T04:54:43.015Z,95740.93
2018-12-21T04:55:51.204Z,95734.98
2018-12-21T04:56:53.640Z,95735.25
2018-12-21T04:57:56.069Z,95739.23
2018-12-21T04:58:58.499Z,95736.88
2018-12-21T05:00:00.964Z,95738.95
2018-12-21T05:01:03.447Z,95744.12
2018-12-21T05:02:06.060Z,95742.66
2018-12-21T05:03:08.531Z,95731.87
2018-12-21T05:04:19.793Z,95728.62
2018-12-21T05:05:16.427Z,95727.13
2018-12-21T05:06:18.857Z,95727.60
2018-12-21T05:07:21.310Z,95729.89
2018-12-21T05:08:23.759Z,95720.84
2018-12-21T05:09:26.190Z,95722.22
2018-12-21T05:10:28.639Z,95723.39
2018-12-21T05:11:31.072Z,95719.33
2018-12-21T05:12:33.516Z,95718.08
2018-12-21T05:13:35.948Z,95709.24
2018-12-21T05:14:38.387Z,95717.49
2018-12-21T05:15:40.828Z,95715.78
2018-12-21T05:16:43.359Z,95718.35
2018-12-21T05:17:45.802Z,95715.25
2018-12-21T05:18:48.247Z,95719.98
2018-12-21T05:19:50.684Z,95718.05
2018-12-21T05:20:53.128Z,95722.45
2018-12-21T05:21:55.623Z,95723.62
2018-12-21T05:22:58.068Z,95720.56
2018-12-21T05:24:00.496Z,95720.39
2018-12-21T05:25:02.935Z,95722.95
2018-12-21T05:26:05.500Z,95721.78
2018-12-21T05:27:07.931Z,95715.88
2018-12-21T05:28:10.365Z,95721.38
2018-12-21T05:29:12.802Z,95713.39
2018-12-21T05:30:15.358Z,95716.20
2018-12-21T05:31:17.823Z,95714.49
2018-12-21T05:32:20.275Z,95709.89
2018-12-21T05:33:22.717Z,95709.21
2018-12-21T05:34:25.162Z,95705.70
2018-12-21T05:35:27.598Z,95699.53
2018-12-21T05:36:30.081Z,95698.22
2018-12-21T05:37:32.556Z,95697.41
2018-12-21T05:38:35.112Z,95690.56
2018-12-21T05:39:37.595Z,95688.53
2018-12-21T05:40:41.618Z,95693.81
2018-12-21T05:41:44.078Z,95681.50
2018-12-21T05:42:46.545Z,95685.83
2018-12-21T05:43:48.985Z,95678.70
2018-12-21T05:44:51.428Z,95677.13
2018-12-21T05:45:53.868Z,95672.36
2018-12-21T05:46:56.315Z,95670.70
2018-12-21T05:47:58.765Z,95667.27
2018-12-21T05:49:01.216Z,95668.08
2018-12-21T05:50:04.205Z,95673.53
2018-12-21T05:51:06.654Z,95671.23
2018-12-21T05:52:09.114Z,95673.70
2018-12-21T05:53:11.567Z,95669.16
2018-12-21T05:54:13.999Z,95671.02
2018-12-21T05:55:16.430Z,95670.23
2018-12-21T05:56:18.885Z,95670.50
2018-12-21T05:57:21.346Z,95670.14
2018-12-21T05:58:23.806Z,95675.56
2018-12-21T05:59:26.246Z,95675.23
2018-12-21T06:00:28.731Z,95661.69
2018-12-21T06:01:31.214Z,95664.65
2018-12-21T06:02:33.697Z,95665.41
2018-12-21T06:03:36.196Z,95663.02
2018-12-21T06:04:38.627Z,95662.61
2018-12-21T06:05:41.058Z,95658.48
2018-12-21T06:06:43.496Z,95665.73
2018-12-21T06:07:45.955Z,95661.14
2018-12-21T06:08:48.452Z,95660.16
2018-12-21T06:09:50.905Z,95659.08
2018-12-21T06:10:53.342Z,95664.02
2018-12-21T06:11:55.779Z,95655.97
2018-12-21T06:12:58.246Z,95654.20
2018-12-21T06:14:01.167Z,95651.95
2018-12-21T06:15:04.534Z,95651.59
2018-12-21T06:16:06.996Z,95654.97
2018-12-21T06:17:09.444Z,95651.05
2018-12-21T06:18:11.900Z,95640.19
2018-12-21T06:19:14.345Z,95643.89
2018-12-21T06:20:16.800Z,95644.66
2018-12-21T06:21:19.238Z,95638.48
2018-12-21T06:22:21.679Z,95639.21
2018-12-21T06:23:24.135Z,95637.50
2018-12-21T06:24:26.591Z,95643.34
2018-12-21T06:25:29.048Z,95637.09
2018-12-21T06:26:31.500Z,95633.17
2018-12-21T06:27:33.939Z,95636.87
2018-12-21T06:28:36.408Z,95632.31
2018-12-21T06:29:38.888Z,95633.34
2018-12-21T06:30:41.410Z,95632.45
2018-12-21T06:31:43.892Z,95636.52
2018-12-21T06:32:46.361Z,95616.12
2018-12-21T06:33:49.028Z,95621.10
2018-12-21T06:34:51.466Z,95619.66
2018-12-21T06:35:53.944Z,95616.28
2018-12-21T06:36:56.402Z,95613.50
2018-12-21T06:37:58.844Z,95609.53
2018-12-21T06:39:01.307Z,95608.09
2018-12-21T06:40:04.744Z,95608.73
2018-12-21T06:41:07.188Z,95610.58
2018-12-21T06:42:09.631Z,95606.55
2018-12-21T06:43:12.077Z,95607.64
2018-12-21T06:44:14.540Z,95603.14
2018-12-21T06:45:16.992Z,95605.75
2018-12-21T06:46:19.439Z,95608.00
2018-12-21T06:47:21.892Z,95607.14
2018-12-21T06:48:24.339Z,95607.41
2018-12-21T06:49:26.811Z,95608.08
2018-12-21T06:50:29.295Z,95610.95
2018-12-21T06:51:31.731Z,95576.84
2018-12-21T06:52:34.194Z,95608.60
2018-12-21T06:53:36.783Z,95606.20
2018-12-21T06:54:39.279Z,95604.53
2018-12-21T06:55:41.752Z,95600.48
2018-12-21T06:56:44.220Z,95600.33
2018-12-21T06:57:46.664Z,95605.97
2018-12-21T06:58:49.136Z,95600.73
2018-12-21T06:59:51.601Z,95603.53
2018-12-21T07:00:54.041Z,95602.45
2018-12-21T07:01:56.487Z,95596.09
2018-12-21T07:02:59.129Z,95602.23
2018-12-21T07:04:01.715Z,95596.59
2018-12-21T07:05:05.782Z,95591.02
2018-12-21T07:06:08.235Z,95590.06
2018-12-21T07:07:10.671Z,95591.63
2018-12-21T07:08:13.108Z,95590.33
2018-12-21T07:09:15.535Z,95582.34
2018-12-21T07:10:17.995Z,95584.05
2018-12-21T07:11:20.443Z,95583.43
2018-12-21T07:12:22.958Z,95581.39
2018-12-21T07:13:25.400Z,95577.00
2018-12-21T07:14:27.837Z,95577.95
2018-12-21T07:15:30.323Z,95577.95
2018-12-21T07:16:32.790Z,95570.10
2018-12-21T07:17:35.248Z,95570.83
2018-12-21T07:18:37.689Z,95572.46
2018-12-21T07:19:40.119Z,95572.27
2018-12-21T07:20:42.687Z,95576.05
2018-12-21T07:21:45.146Z,95575.64
2018-12-21T07:22:47.588Z,95568.71
2018-12-21T07:23:50.045Z,95575.80
2018-12-21T07:24:52.511Z,95573.47
2018-12-21T07:25:55.085Z,95576.88
2018-12-21T07:26:57.589Z,95575.64
2018-12-21T07:28:00.033Z,95578.27
2018-12-21T07:29:02.477Z,95582.44
2018-12-21T07:30:07.790Z,95580.41
2018-12-21T07:31:10.331Z,95574.89
2018-12-21T07:32:12.815Z,95570.07
2018-12-21T07:33:15.250Z,95571.59
2018-12-21T07:34:17.699Z,95565.75
2018-12-21T07:35:20.156Z,95566.52
2018-12-21T07:36:22.624Z,95564.55
2018-12-21T07:37:25.155Z,95560.81
2018-12-21T07:38:27.737Z,95558.02
2018-12-21T07:39:32.286Z,95558.56
2018-12-21T07:40:34.742Z,95564.95
2018-12-21T07:41:37.224Z,95551.73
2018-12-21T07:42:39.704Z,95553.77
2018-12-21T07:43:42.163Z,95555.48
2018-12-21T07:44:44.591Z,95551.52
2018-12-21T07:45:47.037Z,95549.12
2018-12-21T07:46:49.515Z,95546.94
2018-12-21T07:47:52.005Z,95553.48
2018-12-21T07:48:54.460Z,95546.33
2018-12-21T07:49:56.901Z,95546.29
2018-12-21T07:50:59.388Z,95547.63
2018-12-21T07:52:01.860Z,95544.95
2018-12-21T07:53:04.352Z,95551.27
2018-12-21T07:54:06.801Z,95543.17
2018-12-21T07:55:09.233Z,95542.98
2018-12-21T07:56:11.731Z,95538.59
2018-12-21T07:57:14.189Z,95543.64
2018-12-21T07:58:16.680Z,95545.53
2018-12-21T07:59:19.137Z,95537.83
2018-12-21T08:00:21.683Z,95536.38
2018-12-21T08:01:24.155Z,95530.75
2018-12-21T08:02:26.663Z,95534.48
2018-12-21T08:03:29.115Z,95531.66
2018-12-21T08:04:31.567Z,95526.72
2018-12-21T08:05:34.129Z,95527.63
2018-12-21T08:06:36.562Z,95535.29
2018-12-21T08:07:39.028Z,95526.83
2018-12-21T08:08:41.499Z,95523.12
2018-12-21T08:09:43.970Z,95527.59
2018-12-21T08:10:46.413Z,95529.11
2018-12-21T08:11:48.874Z,95520.66
2018-12-21T08:12:51.370Z,95524.98
2018-12-21T08:13:53.846Z,95527.73
2018-12-21T08:14:56.304Z,95530.75
2018-12-21T08:15:58.771Z,95529.84
2018-12-21T08:17:01.215Z,95526.50
2018-12-21T08:18:03.907Z,95527.59
2018-12-21T08:19:06.379Z,95523.82
2018-12-21T08:20:09.033Z,95516.08
2018-12-21T08:21:11.752Z,95515.03
2018-12-21T08:22:14.229Z,95516.59
2018-12-21T08:23:16.720Z,95516.08
2018-12-21T08:24:19.201Z,95517.43
2018-12-21T08:25:21.984Z,95517.03
2018-12-21T08:26:24.571Z,95522.00
2018-12-21T08:27:27.027Z,95512.45
2018-12-21T08:28:29.620Z,95511.04
2018-12-21T08:29:32.063Z,95507.62
2018-12-21T08:30:34.522Z,95516.58
2018-12-21T08:31:37.083Z,95507.06
2018-12-21T08:32:39.639Z,95515.05
2018-12-21T08:33:42.095Z,95512.25
2018-12-21T08:34:44.523Z,95510.33
2018-12-21T08:35:47.020Z,95519.44
2018-12-21T08:36:49.474Z,95510.38
2018-12-21T08:37:51.899Z,95507.11
2018-12-21T08:38:54.353Z,95513.84
2018-12-21T08:39:56.810Z,95515.83
2018-12-21T08:40:59.263Z,95514.08
2018-12-21T08:42:01.715Z,95505.13
2018-12-21T08:43:04.145Z,95504.03
2018-12-21T08:44:06.606Z,95497.09
2018-12-21T08:45:09.137Z,95500.11
2018-12-21T08:46:11.875Z,95497.24
2018-12-21T08:47:14.344Z,95498.34
2018-12-21T08:48:16.820Z,95496.23
2018-12-21T08:49:19.796Z,95495.69
2018-12-21T08:50:22.327Z,95494.27
2018-12-21T08:51:24.898Z,95489.73
2018-12-21T08:52:27.385Z,95489.27
2018-12-21T08:53:29.851Z,95490.20
2018-12-21T08:54:32.305Z,95490.45
2018-12-21T08:55:35.537Z,95495.36
2018-12-21T08:56:42.611Z,95496.08
2018-12-21T08:57:45.041Z,95486.20
2018-12-21T08:58:47.547Z,95489.83
2018-12-21T08:59:50.095Z,95486.77
2018-12-21T09:00:52.563Z,95501.06
2018-12-21T09:01:55.069Z,95498.60
2018-12-21T09:02:57.710Z,95495.16
2018-12-21T09:04:00.200Z,95490.33
2018-12-21T09:05:08.243Z,95492.28
2018-12-21T09:06:18.383Z,95491.46
2018-12-21T09:07:16.095Z,95498.97
2018-12-21T09:08:18.536Z,95501.15
2018-12-21T09:09:21.031Z,95505.87
2018-12-21T09:10:23.674Z,95507.27
2018-12-21T09:11:26.123Z,95514.48
2018-12-21T09:12:28.606Z,95513.61
2018-12-21T09:13:31.349Z,95521.55
2018-12-21T09:14:33.830Z,95522.55
2018-12-21T09:15:36.283Z,95526.05
2018-12-21T09:16:38.966Z,95530.98
2018-12-21T09:17:41.551Z,95539.41
2018-12-21T09:18:44.018Z,95533.23
2018-12-21T09:19:46.471Z,95534.38
2018-12-21T09:20:48.914Z,95541.95
2018-12-21T09:21:51.374Z,95550.59
2018-12-21T09:22:53.825Z,95550.56
2018-12-21T09:24:01.113Z,95544.94
2018-12-21T09:25:00.823Z,95547.55
2018-12-21T09:26:03.387Z,95558.48
2018-12-21T09:27:05.894Z,95563.71
2018-12-21T09:28:09.177Z,95552.94
2018-12-21T09:29:11.681Z,95564.92
2018-12-21T09:30:14.186Z,95565.71
2018-12-21T09:31:16.644Z,95565.80
2018-12-21T09:32:19.146Z,95570.03
2018-12-21T09:33:21.587Z,95568.96
2018-12-21T09:34:24.085Z,95578.91
2018-12-21T09:35:26.513Z,95577.76
2018-12-21T09:36:29.028Z,95588.15
2018-12-21T09:37:31.574Z,95584.38
2018-12-21T09:38:34.019Z,95587.00
2018-12-21T09:39:36.474Z,95593.63
2018-12-21T09:40:39.010Z,95602.37
2018-12-21T09:41:41.591Z,95606.05
2018-12-21T09:42:44.108Z,95603.34
2018-12-21T09:43:46.804Z,95595.39
2018-12-21T09:44:52.629Z,95592.41
2018-12-21T09:45:53.774Z,95600.05
2018-12-21T09:46:56.300Z,95585.70
2018-12-21T09:47:58.744Z,95588.89
2018-12-21T09:49:02.498Z,95584.55
2018-12-21T09:50:06.196Z,95575.22
2018-12-21T09:51:08.672Z,95577.32
2018-12-21T09:52:11.227Z,95566.84
2018-12-21T09:53:13.699Z,95561.47
2018-12-21T09:54:16.166Z,95550.21
2018-12-21T09:55:18.595Z,95555.95
2018-12-21T09:56:21.160Z,95547.56
2018-12-21T09:57:23.627Z,95539.55
2018-12-21T09:58:26.159Z,95535.44
2018-12-21T09:59:28.607Z,95533.19
2018-12-21T10:00:31.078Z,95530.78
2018-12-21T10:01:33.526Z,95529.65
2018-12-21T10:02:36.154Z,95529.08
2018-12-21T10:03:38.756Z,95523.65
2018-12-21T10:04:41.233Z,95525.15
2018-12-21T10:05:43.710Z,95528.48
2018-12-21T10:06:46.173Z,95530.70
2018-12-21T10:07:48.998Z,95522.64
2018-12-21T10:08:51.607Z,95529.58
2018-12-21T10:09:54.209Z,95520.23
2018-12-21T10:10:56.653Z,95522.45
2018-12-21T10:11:59.103Z,95511.63
2018-12-21T10:13:01.851Z,95513.02
2018-12-21T10:14:04.515Z,95511.52
2018-12-21T10:15:08.167Z,95505.37
2018-12-21T10:16:10.775Z,95496.41
2018-12-21T10:17:13.309Z,95488.55
2018-12-21T10:18:15.805Z,95491.88
2018-12-21T10:19:18.594Z,95484.20
2018-12-21T10:20:21.213Z,95485.50
2018-12-21T10:21:23.683Z,95479.89
2018-12-21T10:22:26.335Z,95476.34
2018-12-21T10:23:28.812Z,95480.27
2018-12-21T10:24:31.290Z,95473.27
2018-12-21T10:25:33.734Z,95457.75
2018-12-21T10:26:36.259Z,95453.24
2018-12-21T10:27:38.973Z,95463.77
2018-12-21T10:28:41.536Z,95455.16
2018-12-21T10:29:44.073Z,95449.86
2018-12-21T10:30:47.275Z,95453.25
2018-12-21T10:31:50.247Z,95441.09
2018-12-21T10:32:52.811Z,95438.31
2018-12-21T10:33:55.315Z,95446.38
2018-12-21T10:34:57.769Z,95441.31
2018-12-21T10:36:00.212Z,95441.14
2018-12-21T10:37:02.702Z,95438.35
2018-12-21T10:38:05.143Z,95429.91
2018-12-21T10:39:07.711Z,95431.59
2018-12-21T10:40:10.357Z,95419.41
2018-12-21T10:41:12.805Z,95418.11
2018-12-21T10:42:15.256Z,95419.03
2018-12-21T10:43:17.690Z,95408.19
2018-12-21T10:44:20.344Z,95411.77
2018-12-21T10:45:22.841Z,95407.80
2018-12-21T10:46:25.312Z,95402.46
2018-12-21T10:47:27.754Z,95401.58
2018-12-21T10:48:30.233Z,95398.08
2018-12-21T10:49:32.721Z,95404.53
2018-12-21T10:50:36.454Z,95398.77
2018-12-21T10:51:41.613Z,95395.02
2018-12-21T10:52:45.890Z,95398.39
2018-12-21T10:53:48.407Z,95396.56
2018-12-21T10:54:51.692Z,95310.48
2018-12-21T10:55:54.244Z,95389.28
2018-12-21T10:56:56.813Z,95385.31
2018-12-21T10:57:59.788Z,95375.39
2018-12-21T10:59:02.314Z,95373.74
2018-12-21T11:00:07.440Z,95373.52
2018-12-21T11:01:10.318Z,95367.66
2018-12-21T11:02:13.123Z,95363.48
2018-12-21T11:03:15.819Z,95359.56
2018-12-21T11:04:19.379Z,95351.70
2018-12-21T11:05:22.252Z,95351.88
2018-12-21T11:06:24.795Z,95353.77
2018-12-21T11:07:27.465Z,95344.02
2018-12-21T11:08:30.290Z,95343.13
2018-12-21T11:09:32.875Z,95347.83
2018-12-21T11:10:35.328Z,95342.00
2018-12-21T11:11:37.817Z,95342.94
2018-12-21T11:12:40.306Z,95336.22
2018-12-21T11:13:42.740Z,95334.59
2018-12-21T11:14:45.264Z,95336.00
2018-12-21T11:15:47.848Z,95329.46
2018-12-21T11:16:50.367Z,95320.00
2018-12-21T11:17:52.811Z,95323.45
2018-12-21T11:18:55.343Z,95319.77
2018-12-21T11:19:57.876Z,95302.39
2018-12-21T11:21:00.432Z,95302.77
2018-12-21T11:22:02.884Z,95308.39
2018-12-21T11:23:05.402Z,95288.95
2018-12-21T11:24:09.075Z,95279.48
2018-12-21T11:25:11.691Z,95286.78
2018-12-21T11:26:14.166Z,95284.93
2018-12-21T11:27:16.670Z,95275.16
2018-12-21T11:28:25.319Z,95286.84
2018-12-21T11:29:23.818Z,95275.98
2018-12-21T11:30:26.443Z,95267.67
2018-12-21T11:31:28.978Z,95279.48
2018-12-21T11:32:31.448Z,95278.27
2018-12-21T11:33:34.018Z,95249.56
2018-12-21T11:34:36.471Z,95243.53
2018-12-21T11:35:39.086Z,95247.34
2018-12-21T11:36:41.583Z,95266.71
2018-12-21T11:37:44.040Z,95262.98
2018-12-21T11:38:46.719Z,95250.08
2018-12-21T11:39:49.557Z,95223.35
2018-12-21T11:40:51.991Z,95212.14
2018-12-21T11:41:54.458Z,95208.59
2018-12-21T11:42:56.931Z,95209.45
2018-12-21T11:43:59.436Z,95200.45
2018-12-21T11:45:01.872Z,95199.27
2018-12-21T11:46:04.332Z,95201.22
2018-12-21T11:47:07.671Z,95211.31
2018-12-21T11:48:10.125Z,95194.48
2018-12-21T11:49:12.611Z,95191.50
2018-12-21T11:50:15.058Z,95199.66
2018-12-21T11:51:17.570Z,95209.34
2018-12-21T11:52:20.059Z,95194.11
2018-12-21T11:53:22.515Z,95184.64
2018-12-21T11:54:24.947Z,95188.23
2018-12-21T11:55:27.407Z,95187.11
2018-12-21T11:56:29.844Z,95184.27
2018-12-21T11:57:32.503Z,95172.70
2018-12-21T11:58:34.969Z,95186.55
2018-12-21T11:59:44.672Z,95199.86
2018-12-21T12:00:42.056Z,95191.41
2018-12-21T12:01:44.516Z,95185.86
2018-12-21T12:02:47.316Z,95187.26
2018-12-21T12:03:50.133Z,95189.83
2018-12-21T12:04:52.602Z,95194.47
2018-12-21T12:05:55.063Z,95193.21
2018-12-21T12:06:57.528Z,95196.37
2018-12-21T12:08:00.815Z,95185.36
2018-12-21T12:09:06.301Z,95185.02
2018-12-21T12:10:09.193Z,95185.58
2018-12-21T12:11:11.638Z,95183.33
2018-12-21T12:12:14.079Z,95178.66
2018-12-21T12:13:16.576Z,95166.83
2018-12-21T12:14:19.044Z,95173.42
2018-12-21T12:15:22.346Z,95172.49
2018-12-21T12:16:24.810Z,95163.54